sensor_id;sensor_type;location;lat;lon;timestamp;pressure;altitude;pressure_sealevel;temperature;humidity
50592;BME280;36548;50.506;30.834;2023-04-04T00:00:07;100017.16;;;5.92;70.56
50592;BME280;36548;50.506;30.834;2023-04-04T00:01:25;100019.54;;;5.98;71.00
50592;BME280;36548;50.506;30.834;2023-04-04T00:02:35;100023.42;;;5.91;71.83
50592;BME280;36548;50.506;30.834;2023-04-04T00:03:44;100024.42;;;5.88;71.68
50592;BME280;36548;50.506;30.834;2023-04-04T00:04:59;100018.69;;;5.97;71.49
50592;BME280;36548;50.506;30.834;2023-04-04T00:06:09;100023.42;;;5.91;71.27
50592;BME280;36548;50.506;30.834;2023-04-04T00:07:24;100021.60;;;6.10;71.31
50592;BME280;36548;50.506;30.834;2023-04-04T00:08:33;100017.36;;;6.06;70.76
50592;BME280;36548;50.506;30.834;2023-04-04T00:09:42;100016.27;;;6.10;70.41
50592;BME280;36548;50.506;30.834;2023-04-04T00:11:00;100013.16;;;6.20;70.45
50592;BME280;36548;50.506;30.834;2023-04-04T00:12:15;100006.80;;;6.40;70.00
50592;BME280;36548;50.506;30.834;2023-04-04T00:13:26;100008.55;;;6.23;69.16
50592;BME280;36548;50.506;30.834;2023-04-04T00:14:42;100017.25;;;6.44;69.48
50592;BME280;36548;50.506;30.834;2023-04-04T00:15:52;100017.25;;;6.44;70.02
50592;BME280;36548;50.506;30.834;2023-04-04T00:17:08;100012.69;;;6.64;69.26
50592;BME280;36548;50.506;30.834;2023-04-04T00:18:17;100010.02;;;6.46;68.43
50592;BME280;36548;50.506;30.834;2023-04-04T00:19:33;100010.48;;;6.55;68.84
50592;BME280;36548;50.506;30.834;2023-04-04T00:20:43;100009.31;;;6.25;68.67
50592;BME280;36548;50.506;30.834;2023-04-04T00:21:58;100007.42;;;6.27;69.37
50592;BME280;36548;50.506;30.834;2023-04-04T00:23:07;100013.93;;;6.04;69.97
50592;BME280;36548;50.506;30.834;2023-04-04T00:24:25;100008.76;;;6.01;70.28
50592;BME280;36548;50.506;30.834;2023-04-04T00:25:34;100014.73;;;5.87;70.79
50592;BME280;36548;50.506;30.834;2023-04-04T00:26:44;100007.34;;;5.75;70.82
50592;BME280;36548;50.506;30.834;2023-04-04T00:28:00;100006.95;;;5.83;71.14
50592;BME280;36548;50.506;30.834;2023-04-04T00:29:10;100009.84;;;5.78;71.78
50592;BME280;36548;50.506;30.834;2023-04-04T00:30:20;100007.67;;;5.86;71.57
50592;BME280;36548;50.506;30.834;2023-04-04T00:31:30;100010.02;;;5.92;70.66
50592;BME280;36548;50.506;30.834;2023-04-04T00:32:45;100005.61;;;6.10;70.14
50592;BME280;36548;50.506;30.834;2023-04-04T00:33:55;100008.59;;;6.04;70.07
50592;BME280;36548;50.506;30.834;2023-04-04T00:35:29;100001.16;;;6.28;70.17
50592;BME280;36548;50.506;30.834;2023-04-04T00:36:39;99997.94;;;6.22;69.62
50592;BME280;36548;50.506;30.834;2023-04-04T00:37:50;99998.57;;;6.27;69.48
50592;BME280;36548;50.506;30.834;2023-04-04T00:38:59;100000.06;;;6.33;69.24
50592;BME280;36548;50.506;30.834;2023-04-04T00:40:15;100003.67;;;6.49;69.41
50592;BME280;36548;50.506;30.834;2023-04-04T00:41:24;100006.88;;;6.38;69.55
50592;BME280;36548;50.506;30.834;2023-04-04T00:42:34;100006.66;;;6.25;69.12
50592;BME280;36548;50.506;30.834;2023-04-04T00:43:43;100012.23;;;6.21;69.72
50592;BME280;36548;50.506;30.834;2023-04-04T00:45:00;99999.51;;;6.26;70.12
50592;BME280;36548;50.506;30.834;2023-04-04T00:46:10;100017.28;;;6.08;70.11
50592;BME280;36548;50.506;30.834;2023-04-04T00:47:23;100014.34;;;5.95;69.87
50592;BME280;36548;50.506;30.834;2023-04-04T00:48:35;100017.08;;;5.93;70.41
50592;BME280;36548;50.506;30.834;2023-04-04T00:49:45;100028.52;;;5.95;70.50
50592;BME280;36548;50.506;30.834;2023-04-04T00:50:55;100025.80;;;5.97;70.69
50592;BME280;36548;50.506;30.834;2023-04-04T00:52:11;100026.94;;;6.10;70.32
50592;BME280;36548;50.506;30.834;2023-04-04T00:53:20;100027.58;;;5.96;69.99
50592;BME280;36548;50.506;30.834;2023-04-04T00:54:35;100021.23;;;6.18;70.16
50592;BME280;36548;50.506;30.834;2023-04-04T00:55:46;100023.17;;;6.14;70.11
50592;BME280;36548;50.506;30.834;2023-04-04T00:56:56;100022.80;;;6.22;69.96
50592;BME280;36548;50.506;30.834;2023-04-04T00:58:05;100027.60;;;6.33;69.98
50592;BME280;36548;50.506;30.834;2023-04-04T00:59:22;100010.33;;;6.58;69.65
50592;BME280;36548;50.506;30.834;2023-04-04T01:00:34;100017.72;;;6.53;69.45
50592;BME280;36548;50.506;30.834;2023-04-04T01:01:46;100013.41;;;6.50;69.26
50592;BME280;36548;50.506;30.834;2023-04-04T01:02:57;100016.23;;;6.47;69.75
50592;BME280;36548;50.506;30.834;2023-04-04T01:04:07;100010.19;;;6.43;69.86
50592;BME280;36548;50.506;30.834;2023-04-04T01:05:25;100009.72;;;6.53;70.25
50592;BME280;36548;50.506;30.834;2023-04-04T01:06:34;100010.17;;;6.26;68.84
50592;BME280;36548;50.506;30.834;2023-04-04T01:07:44;100013.45;;;6.13;69.29
50592;BME280;36548;50.506;30.834;2023-04-04T01:09:20;100004.76;;;6.27;70.56
50592;BME280;36548;50.506;30.834;2023-04-04T01:10:29;100009.69;;;6.18;70.06
50592;BME280;36548;50.506;30.834;2023-04-04T01:11:46;100003.67;;;6.14;69.54
50592;BME280;36548;50.506;30.834;2023-04-04T01:12:56;100010.45;;;6.02;69.91
50592;BME280;36548;50.506;30.834;2023-04-04T01:14:11;100002.66;;;6.17;69.79
50592;BME280;36548;50.506;30.834;2023-04-04T01:15:22;100009.29;;;6.08;69.86
50592;BME280;36548;50.506;30.834;2023-04-04T01:16:38;100005.33;;;6.17;69.94
50592;BME280;36548;50.506;30.834;2023-04-04T01:17:51;100010.70;;;5.97;69.74
50592;BME280;36548;50.506;30.834;2023-04-04T01:19:05;100006.58;;;5.90;70.31
50592;BME280;36548;50.506;30.834;2023-04-04T01:20:24;100006.27;;;5.96;70.81
50592;BME280;36548;50.506;30.834;2023-04-04T01:21:36;100012.43;;;5.79;70.80
50592;BME280;36548;50.506;30.834;2023-04-04T01:22:48;100008.27;;;5.74;70.91
50592;BME280;36548;50.506;30.834;2023-04-04T01:24:05;100002.42;;;5.85;71.46
50592;BME280;36548;50.506;30.834;2023-04-04T01:25:23;100003.09;;;5.71;71.00
50592;BME280;36548;50.506;30.834;2023-04-04T01:26:35;100003.12;;;5.88;70.87
50592;BME280;36548;50.506;30.834;2023-04-04T01:27:46;100006.02;;;5.84;70.71
50592;BME280;36548;50.506;30.834;2023-04-04T01:29:01;100002.26;;;6.07;70.59
50592;BME280;36548;50.506;30.834;2023-04-04T01:30:12;100005.29;;;5.99;69.96
50592;BME280;36548;50.506;30.834;2023-04-04T01:31:42;100004.15;;;6.22;70.00
50592;BME280;36548;50.506;30.834;2023-04-04T01:32:58;100005.00;;;6.23;70.29
50592;BME280;36548;50.506;30.834;2023-04-04T01:35:42;100007.91;;;6.53;69.35
50592;BME280;36548;50.506;30.834;2023-04-04T01:39:55;100002.04;;;6.29;69.31
50592;BME280;36548;50.506;30.834;2023-04-04T01:41:07;100010.02;;;6.11;69.72
50592;BME280;36548;50.506;30.834;2023-04-04T01:42:20;100011.47;;;6.00;69.80
50592;BME280;36548;50.506;30.834;2023-04-04T01:43:37;100017.36;;;6.06;70.56
50592;BME280;36548;50.506;30.834;2023-04-04T01:44:46;100010.09;;;5.91;70.77
50592;BME280;36548;50.506;30.834;2023-04-04T01:46:02;100016.16;;;5.94;70.66
50592;BME280;36548;50.506;30.834;2023-04-04T01:47:12;100018.48;;;5.83;71.14
50592;BME280;36548;50.506;30.834;2023-04-04T01:48:29;100017.86;;;5.95;70.85
50592;BME280;36548;50.506;30.834;2023-04-04T01:49:40;100027.97;;;5.89;70.62
50592;BME280;36548;50.506;30.834;2023-04-04T01:50:56;100023.78;;;6.02;70.33
50592;BME280;36548;50.506;30.834;2023-04-04T01:52:08;100027.53;;;5.98;70.21
50592;BME280;36548;50.506;30.834;2023-04-04T01:53:24;100031.09;;;6.16;70.06
50592;BME280;36548;50.506;30.834;2023-04-04T01:54:32;100028.75;;;6.10;69.76
50592;BME280;36548;50.506;30.834;2023-04-04T01:55:43;100029.31;;;6.17;69.70
50592;BME280;36548;50.506;30.834;2023-04-04T01:56:55;100032.54;;;6.23;69.62
50592;BME280;36548;50.506;30.834;2023-04-04T01:58:11;100019.36;;;6.38;69.45
50592;BME280;36548;50.506;30.834;2023-04-04T01:59:20;100026.24;;;6.24;69.61
50592;BME280;36548;50.506;30.834;2023-04-04T02:00:31;100030.00;;;6.20;69.64
50592;BME280;36548;50.506;30.834;2023-04-04T02:01:41;100030.61;;;6.08;69.38
50592;BME280;36548;50.506;30.834;2023-04-04T02:02:51;100034.31;;;6.05;70.29
50592;BME280;36548;50.506;30.834;2023-04-04T02:04:06;100033.67;;;6.18;71.19
50592;BME280;36548;50.506;30.834;2023-04-04T02:05:17;100035.24;;;6.04;70.77
50592;BME280;36548;50.506;30.834;2023-04-04T02:06:27;100034.80;;;5.94;70.17
50592;BME280;36548;50.506;30.834;2023-04-04T02:07:47;100039.69;;;6.04;70.29
50592;BME280;36548;50.506;30.834;2023-04-04T02:09:03;100027.73;;;5.93;70.21
50592;BME280;36548;50.506;30.834;2023-04-04T02:10:14;100029.99;;;6.03;70.27
50592;BME280;36548;50.506;30.834;2023-04-04T02:11:25;100032.27;;;6.10;69.84
50592;BME280;36548;50.506;30.834;2023-04-04T02:12:42;100029.47;;;6.31;69.73
50592;BME280;36548;50.506;30.834;2023-04-04T02:13:50;100033.15;;;6.28;69.70
50592;BME280;36548;50.506;30.834;2023-04-04T02:15:07;100021.62;;;6.45;68.71
50592;BME280;36548;50.506;30.834;2023-04-04T02:16:17;100026.42;;;6.39;68.96
50592;BME280;36548;50.506;30.834;2023-04-04T02:17:27;100026.52;;;6.37;69.04
50592;BME280;36548;50.506;30.834;2023-04-04T02:18:43;100023.98;;;6.34;68.99
50592;BME280;36548;50.506;30.834;2023-04-04T02:19:52;100037.14;;;6.20;69.53
50592;BME280;36548;50.506;30.834;2023-04-04T02:21:07;100032.30;;;6.28;70.33
50592;BME280;36548;50.506;30.834;2023-04-04T02:22:17;100031.48;;;6.08;69.72
50592;BME280;36548;50.506;30.834;2023-04-04T02:23:27;100034.44;;;6.02;69.90
50592;BME280;36548;50.506;30.834;2023-04-04T02:24:36;100031.86;;;6.01;70.23
50592;BME280;36548;50.506;30.834;2023-04-04T02:25:45;100031.00;;;6.00;70.44
50592;BME280;36548;50.506;30.834;2023-04-04T02:27:02;100021.77;;;6.07;70.49
50592;BME280;36548;50.506;30.834;2023-04-04T02:28:11;100027.58;;;5.96;70.62
50592;BME280;36548;50.506;30.834;2023-04-04T02:29:21;100022.00;;;6.03;70.95
50592;BME280;36548;50.506;30.834;2023-04-04T02:30:32;100021.12;;;6.02;69.76
50592;BME280;36548;50.506;30.834;2023-04-04T02:31:43;100020.91;;;6.07;69.92
50592;BME280;36548;50.506;30.834;2023-04-04T02:32:58;100014.81;;;6.22;69.62
50592;BME280;36548;50.506;30.834;2023-04-04T02:34:08;100013.53;;;6.12;69.68
50592;BME280;36548;50.506;30.834;2023-04-04T02:35:23;100015.83;;;6.20;69.74
50592;BME280;36548;50.506;30.834;2023-04-04T02:36:32;100014.01;;;6.03;69.92
50592;BME280;36548;50.506;30.834;2023-04-04T02:37:47;100015.66;;;6.05;70.05
50592;BME280;36548;50.506;30.834;2023-04-04T02:39:04;100007.59;;;5.88;70.46
50592;BME280;36548;50.506;30.834;2023-04-04T02:40:20;100017.80;;;5.97;71.37
50592;BME280;36548;50.506;30.834;2023-04-04T02:41:29;100014.09;;;5.82;70.96
50592;BME280;36548;50.506;30.834;2023-04-04T02:43:04;100000.37;;;5.90;70.42
50592;BME280;36548;50.506;30.834;2023-04-04T02:44:14;100011.11;;;5.88;71.01
50592;BME280;36548;50.506;30.834;2023-04-04T02:45:51;100010.86;;;6.12;70.41
50592;BME280;36548;50.506;30.834;2023-04-04T02:47:06;100003.03;;;6.09;70.17
50592;BME280;36548;50.506;30.834;2023-04-04T02:48:21;99991.67;;;6.23;69.16
50592;BME280;36548;50.506;30.834;2023-04-04T02:49:32;99993.65;;;6.19;69.21
50592;BME280;36548;50.506;30.834;2023-04-04T02:50:48;99980.94;;;6.42;69.28
50592;BME280;36548;50.506;30.834;2023-04-04T02:51:57;99988.47;;;6.34;69.02
50592;BME280;36548;50.506;30.834;2023-04-04T02:53:08;99991.98;;;6.34;69.10
50592;BME280;36548;50.506;30.834;2023-04-04T02:54:26;99977.97;;;6.30;68.78
50592;BME280;36548;50.506;30.834;2023-04-04T02:55:36;99979.77;;;6.12;69.34
50592;BME280;36548;50.506;30.834;2023-04-04T02:56:46;99990.95;;;6.02;69.21
50592;BME280;36548;50.506;30.834;2023-04-04T02:58:01;99984.18;;;5.94;69.45
50592;BME280;36548;50.506;30.834;2023-04-04T02:59:10;99989.39;;;5.78;70.07
50592;BME280;36548;50.506;30.834;2023-04-04T03:00:25;99980.47;;;5.79;70.36
50592;BME280;36548;50.506;30.834;2023-04-04T03:01:36;99993.73;;;5.62;70.67
50592;BME280;36548;50.506;30.834;2023-04-04T03:02:53;99993.19;;;5.55;71.06
50592;BME280;36548;50.506;30.834;2023-04-04T03:04:05;99983.31;;;5.57;71.50
50592;BME280;36548;50.506;30.834;2023-04-04T03:05:25;99980.05;;;5.70;71.48
50592;BME280;36548;50.506;30.834;2023-04-04T03:06:34;99984.73;;;5.64;71.19
50592;BME280;36548;50.506;30.834;2023-04-04T03:07:44;99978.63;;;5.62;70.55
50592;BME280;36548;50.506;30.834;2023-04-04T03:08:54;99989.72;;;5.53;70.79
50592;BME280;36548;50.506;30.834;2023-04-04T03:10:09;99991.48;;;5.72;71.10
50592;BME280;36548;50.506;30.834;2023-04-04T03:11:19;99998.28;;;5.60;71.03
50592;BME280;36548;50.506;30.834;2023-04-04T03:12:31;99988.28;;;5.65;70.96
50592;BME280;36548;50.506;30.834;2023-04-04T03:13:47;99999.96;;;5.80;70.82
50592;BME280;36548;50.506;30.834;2023-04-04T03:14:58;100007.75;;;5.85;71.21
50592;BME280;36548;50.506;30.834;2023-04-04T03:16:14;100003.03;;;6.09;71.41
50592;BME280;36548;50.506;30.834;2023-04-04T03:17:29;100002.17;;;6.08;71.11
50592;BME280;36548;50.506;30.834;2023-04-04T03:18:44;100007.02;;;6.18;69.53
50592;BME280;36548;50.506;30.834;2023-04-04T03:19:54;100012.52;;;6.14;69.68
50592;BME280;36548;50.506;30.834;2023-04-04T03:21:04;100010.49;;;6.20;69.58
50592;BME280;36548;50.506;30.834;2023-04-04T03:22:20;100013.23;;;6.36;69.78
50592;BME280;36548;50.506;30.834;2023-04-04T03:23:31;100020.99;;;6.23;69.62
50592;BME280;36548;50.506;30.834;2023-04-04T03:24:41;100017.64;;;6.19;69.65
50592;BME280;36548;50.506;30.834;2023-04-04T03:25:56;100013.16;;;6.20;69.62
50592;BME280;36548;50.506;30.834;2023-04-04T03:27:05;100017.60;;;6.02;69.87
50592;BME280;36548;50.506;30.834;2023-04-04T03:28:15;100021.41;;;5.96;70.47
50592;BME280;36548;50.506;30.834;2023-04-04T03:29:26;100023.73;;;5.85;70.42
50592;BME280;36548;50.506;30.834;2023-04-04T03:30:43;100018.33;;;5.86;70.77
50592;BME280;36548;50.506;30.834;2023-04-04T03:31:53;100022.44;;;5.74;71.42
50592;BME280;36548;50.506;30.834;2023-04-04T03:33:04;100033.09;;;5.74;70.91
50592;BME280;36548;50.506;30.834;2023-04-04T03:34:24;100033.15;;;5.92;71.20
50592;BME280;36548;50.506;30.834;2023-04-04T03:35:38;100030.27;;;5.77;70.62
50592;BME280;36548;50.506;30.834;2023-04-04T03:36:54;100029.11;;;6.02;71.03
50592;BME280;36548;50.506;30.834;2023-04-04T03:39:27;100034.48;;;6.20;70.65
50592;BME280;36548;50.506;30.834;2023-04-04T03:40:41;100042.55;;;6.18;70.80
50592;BME280;36548;50.506;30.834;2023-04-04T03:41:57;100035.44;;;6.36;69.84
50592;BME280;36548;50.506;30.834;2023-04-04T03:43:06;100046.19;;;6.35;70.16
50592;BME280;36548;50.506;30.834;2023-04-04T03:44:16;100043.11;;;6.42;69.50
50592;BME280;36548;50.506;30.834;2023-04-04T03:45:33;100040.54;;;6.58;69.50
50592;BME280;36548;50.506;30.834;2023-04-04T03:46:43;100044.92;;;6.42;68.71
50592;BME280;36548;50.506;30.834;2023-04-04T03:47:55;100052.08;;;6.41;68.72
50592;BME280;36548;50.506;30.834;2023-04-04T03:49:10;100043.29;;;6.57;69.43
50592;BME280;36548;50.506;30.834;2023-04-04T03:50:21;100046.66;;;6.43;69.54
50592;BME280;36548;50.506;30.834;2023-04-04T03:51:36;100038.50;;;6.46;69.54
50592;BME280;36548;50.506;30.834;2023-04-04T03:52:44;100038.08;;;6.19;68.98
50592;BME280;36548;50.506;30.834;2023-04-04T03:53:55;100034.84;;;6.12;69.62
50592;BME280;36548;50.506;30.834;2023-04-04T03:55:05;100042.23;;;6.07;70.25
50592;BME280;36548;50.506;30.834;2023-04-04T03:56:17;100034.44;;;6.02;70.60
50592;BME280;36548;50.506;30.834;2023-04-04T03:57:26;100036.82;;;5.89;70.18
50592;BME280;36548;50.506;30.834;2023-04-04T03:58:35;100036.89;;;5.88;70.77
50592;BME280;36548;50.506;30.834;2023-04-04T03:59:45;100038.62;;;5.89;70.89
50592;BME280;36548;50.506;30.834;2023-04-04T04:00:55;100039.41;;;5.91;70.67
50592;BME280;36548;50.506;30.834;2023-04-04T04:02:04;100030.41;;;5.93;70.15
50592;BME280;36548;50.506;30.834;2023-04-04T04:03:13;100040.00;;;5.97;70.44
50592;BME280;36548;50.506;30.834;2023-04-04T04:04:26;100038.76;;;6.05;70.44
50592;BME280;36548;50.506;30.834;2023-04-04T04:05:35;100044.89;;;6.07;69.80
50592;BME280;36548;50.506;30.834;2023-04-04T04:06:46;100051.39;;;6.01;69.34
50592;BME280;36548;50.506;30.834;2023-04-04T04:08:02;100042.84;;;6.12;69.58
50592;BME280;36548;50.506;30.834;2023-04-04T04:09:11;100046.67;;;6.06;70.19
50592;BME280;36548;50.506;30.834;2023-04-04T04:10:20;100056.20;;;5.93;69.87
50592;BME280;36548;50.506;30.834;2023-04-04T04:11:30;100057.06;;;5.74;70.52
50592;BME280;36548;50.506;30.834;2023-04-04T04:12:41;100050.95;;;5.72;71.01
50592;BME280;36548;50.506;30.834;2023-04-04T04:13:56;100045.13;;;5.83;71.35
50592;BME280;36548;50.506;30.834;2023-04-04T04:15:05;100053.55;;;5.74;71.56
50592;BME280;36548;50.506;30.834;2023-04-04T04:16:21;100051.95;;;5.89;71.53
50592;BME280;36548;50.506;30.834;2023-04-04T04:17:32;100057.48;;;5.84;71.27
50592;BME280;36548;50.506;30.834;2023-04-04T04:18:48;100052.45;;;5.97;70.46
50592;BME280;36548;50.506;30.834;2023-04-04T04:20:00;100064.70;;;5.82;70.01
50592;BME280;36548;50.506;30.834;2023-04-04T04:21:11;100059.62;;;5.95;70.39
50592;BME280;36548;50.506;30.834;2023-04-04T04:22:26;100060.41;;;6.16;70.51
50592;BME280;36548;50.506;30.834;2023-04-04T04:23:35;100062.38;;;6.12;70.32
50592;BME280;36548;50.506;30.834;2023-04-04T04:24:46;100069.98;;;6.20;70.15
50592;BME280;36548;50.506;30.834;2023-04-04T04:25:56;100070.70;;;6.24;69.39
50592;BME280;36548;50.506;30.834;2023-04-04T04:27:11;100062.74;;;6.41;69.18
50592;BME280;36548;50.506;30.834;2023-04-04T04:28:20;100072.69;;;6.38;69.14
50592;BME280;36548;50.506;30.834;2023-04-04T04:29:33;100067.64;;;6.31;68.55
50592;BME280;36548;50.506;30.834;2023-04-04T04:30:48;100072.92;;;6.51;69.20
50592;BME280;36548;50.506;30.834;2023-04-04T04:31:59;100068.36;;;6.35;69.04
50592;BME280;36548;50.506;30.834;2023-04-04T04:33:11;100066.02;;;6.29;69.32
50592;BME280;36548;50.506;30.834;2023-04-04T04:34:27;100059.44;;;6.36;70.07
50592;BME280;36548;50.506;30.834;2023-04-04T04:35:38;100070.87;;;6.21;70.40
50592;BME280;36548;50.506;30.834;2023-04-04T04:36:48;100070.99;;;6.18;70.58
50592;BME280;36548;50.506;30.834;2023-04-04T04:38:05;100064.81;;;6.17;69.58
50592;BME280;36548;50.506;30.834;2023-04-04T04:39:14;100080.39;;;6.07;69.78
50592;BME280;36548;50.506;30.834;2023-04-04T04:40:25;100073.41;;;6.05;69.30
50592;BME280;36548;50.506;30.834;2023-04-04T04:41:40;100065.66;;;6.18;69.64
50592;BME280;36548;50.506;30.834;2023-04-04T04:42:51;100070.97;;;6.00;69.55
50592;BME280;36548;50.506;30.834;2023-04-04T04:44:03;100079.21;;;5.94;69.59
50592;BME280;36548;50.506;30.834;2023-04-04T04:45:12;100076.20;;;5.83;69.91
50592;BME280;36548;50.506;30.834;2023-04-04T04:46:27;100074.42;;;5.83;70.28
50592;BME280;36548;50.506;30.834;2023-04-04T04:47:37;100076.28;;;5.62;70.62
50592;BME280;36548;50.506;30.834;2023-04-04T04:48:48;100081.09;;;5.54;71.01
50592;BME280;36548;50.506;30.834;2023-04-04T04:50:05;100085.30;;;5.59;71.02
50592;BME280;36548;50.506;30.834;2023-04-04T04:51:19;100085.05;;;5.45;71.31
50592;BME280;36548;50.506;30.834;2023-04-04T04:52:30;100089.60;;;5.43;71.16
50592;BME280;36548;50.506;30.834;2023-04-04T04:53:40;100091.19;;;5.47;71.45
50592;BME280;36548;50.506;30.834;2023-04-04T04:54:55;100092.14;;;5.65;71.85
50592;BME280;36548;50.506;30.834;2023-04-04T04:56:06;100093.99;;;5.63;71.29
50592;BME280;36548;50.506;30.834;2023-04-04T04:57:15;100090.67;;;5.77;71.59
50592;BME280;36548;50.506;30.834;2023-04-04T04:58:25;100090.60;;;5.78;70.62
50592;BME280;36548;50.506;30.834;2023-04-04T04:59:38;100090.02;;;5.91;70.87
50592;BME280;36548;50.506;30.834;2023-04-04T05:00:55;100087.81;;;6.01;70.42
50592;BME280;36548;50.506;30.834;2023-04-04T05:02:06;100088.07;;;6.13;70.25
50592;BME280;36548;50.506;30.834;2023-04-04T05:03:21;100082.62;;;6.34;69.60
50592;BME280;36548;50.506;30.834;2023-04-04T05:04:30;100085.56;;;6.10;68.48
50592;BME280;36548;50.506;30.834;2023-04-04T05:05:45;100082.22;;;6.24;68.67
50592;BME280;36548;50.506;30.834;2023-04-04T05:06:56;100083.98;;;6.06;68.86
50592;BME280;36548;50.506;30.834;2023-04-04T05:08:06;100082.19;;;5.88;69.24
50592;BME280;36548;50.506;30.834;2023-04-04T05:09:21;100076.47;;;5.95;69.90
50592;BME280;36548;50.506;30.834;2023-04-04T05:10:31;100078.29;;;5.76;70.25
50592;BME280;36548;50.506;30.834;2023-04-04T05:11:41;100084.66;;;5.73;70.75
50592;BME280;36548;50.506;30.834;2023-04-04T05:12:57;100083.27;;;5.64;70.67
50592;BME280;36548;50.506;30.834;2023-04-04T05:14:09;100081.24;;;5.51;71.20
50592;BME280;36548;50.506;30.834;2023-04-04T05:15:25;100088.53;;;5.47;71.05
50592;BME280;36548;50.506;30.834;2023-04-04T05:16:36;100092.75;;;5.32;71.18
50592;BME280;36548;50.506;30.834;2023-04-04T05:17:46;100089.82;;;5.18;71.72
50592;BME280;36548;50.506;30.834;2023-04-04T05:19:03;100081.47;;;5.46;71.76
50592;BME280;36548;50.506;30.834;2023-04-04T05:20:14;100079.50;;;5.50;72.04
50592;BME280;36548;50.506;30.834;2023-04-04T05:21:30;100078.74;;;5.67;71.63
50592;BME280;36548;50.506;30.834;2023-04-04T05:22:44;100088.39;;;5.69;71.78
50592;BME280;36548;50.506;30.834;2023-04-04T05:24:00;100085.34;;;5.96;71.50
50592;BME280;36548;50.506;30.834;2023-04-04T05:25:11;100075.84;;;5.90;70.67
50592;BME280;36548;50.506;30.834;2023-04-04T05:26:24;100079.59;;;5.86;69.97
50592;BME280;36548;50.506;30.834;2023-04-04T05:27:35;100084.22;;;6.02;70.25
50592;BME280;36548;50.506;30.834;2023-04-04T05:28:45;100081.20;;;6.09;69.93
50592;BME280;36548;50.506;30.834;2023-04-04T05:30:00;100073.81;;;6.14;69.38
50592;BME280;36548;50.506;30.834;2023-04-04T05:31:11;100080.31;;;6.09;69.92
50592;BME280;36548;50.506;30.834;2023-04-04T05:32:26;100069.29;;;6.17;69.39
50592;BME280;36548;50.506;30.834;2023-04-04T05:33:37;100082.13;;;6.08;69.50
50592;BME280;36548;50.506;30.834;2023-04-04T05:34:57;100088.62;;;6.03;69.48
50592;BME280;36548;50.506;30.834;2023-04-04T05:36:13;100079.61;;;6.05;70.16
50592;BME280;36548;50.506;30.834;2023-04-04T05:37:39;100092.91;;;5.86;70.06
50592;BME280;36548;50.506;30.834;2023-04-04T05:38:52;100091.68;;;5.74;70.33
50592;BME280;36548;50.506;30.834;2023-04-04T05:40:09;100086.78;;;5.84;70.94
50592;BME280;36548;50.506;30.834;2023-04-04T05:41:18;100091.75;;;5.54;70.20
50592;BME280;36548;50.506;30.834;2023-04-04T05:42:33;100099.75;;;5.73;70.50
50592;BME280;36548;50.506;30.834;2023-04-04T05:43:43;100115.73;;;5.73;70.80
50592;BME280;36548;50.506;30.834;2023-04-04T05:44:59;100105.93;;;5.92;70.43
50592;BME280;36548;50.506;30.834;2023-04-04T05:46:10;100114.16;;;5.88;70.21
50592;BME280;36548;50.506;30.834;2023-04-04T05:47:28;100098.27;;;6.05;69.82
50592;BME280;36548;50.506;30.834;2023-04-04T05:48:38;100092.29;;;6.00;69.79
50592;BME280;36548;50.506;30.834;2023-04-04T05:49:54;100074.54;;;6.18;69.73
50592;BME280;36548;50.506;30.834;2023-04-04T05:51:05;100066.91;;;6.10;69.38
50592;BME280;36548;50.506;30.834;2023-04-04T05:52:20;100052.81;;;6.08;69.05
50592;BME280;36548;50.506;30.834;2023-04-04T05:53:30;100058.13;;;5.89;69.43
50592;BME280;36548;50.506;30.834;2023-04-04T05:54:40;100067.44;;;5.80;70.05
50592;BME280;36548;50.506;30.834;2023-04-04T05:55:55;100077.02;;;5.85;70.51
50592;BME280;36548;50.506;30.834;2023-04-04T05:57:09;100089.32;;;5.68;70.59
50592;BME280;36548;50.506;30.834;2023-04-04T05:58:24;100088.23;;;5.53;70.71
50592;BME280;36548;50.506;30.834;2023-04-04T05:59:37;100102.69;;;5.48;71.48
50592;BME280;36548;50.506;30.834;2023-04-04T06:00:50;100107.02;;;5.50;71.65
50592;BME280;36548;50.506;30.834;2023-04-04T06:02:06;100100.75;;;5.70;71.71
50592;BME280;36548;50.506;30.834;2023-04-04T06:03:18;100115.88;;;5.70;71.66
50592;BME280;36548;50.506;30.834;2023-04-04T06:04:30;100110.04;;;5.61;70.33
50592;BME280;36548;50.506;30.834;2023-04-04T06:05:50;100111.41;;;5.89;70.79
50592;BME280;36548;50.506;30.834;2023-04-04T06:07:00;100110.56;;;5.89;70.77
50592;BME280;36548;50.506;30.834;2023-04-04T06:08:15;100105.02;;;6.12;70.53
50592;BME280;36548;50.506;30.834;2023-04-04T06:09:25;100123.75;;;6.11;70.36
50592;BME280;36548;50.506;30.834;2023-04-04T06:10:41;100114.36;;;6.21;69.29
50592;BME280;36548;50.506;30.834;2023-04-04T06:11:51;100120.86;;;6.16;69.22
50592;BME280;36548;50.506;30.834;2023-04-04T06:13:07;100122.61;;;6.34;69.23
50592;BME280;36548;50.506;30.834;2023-04-04T06:14:16;100130.00;;;6.29;69.82
50592;BME280;36548;50.506;30.834;2023-04-04T06:15:31;100126.16;;;6.35;69.36
50592;BME280;36548;50.506;30.834;2023-04-04T06:16:41;100120.62;;;6.20;69.44
50592;BME280;36548;50.506;30.834;2023-04-04T06:17:50;100132.45;;;6.14;69.52
50592;BME280;36548;50.506;30.834;2023-04-04T06:19:07;100128.85;;;6.16;69.66
50592;BME280;36548;50.506;30.834;2023-04-04T06:20:16;100129.67;;;5.99;69.93
50592;BME280;36548;50.506;30.834;2023-04-04T06:21:33;100124.03;;;6.05;70.43
50592;BME280;36548;50.506;30.834;2023-04-04T06:22:43;100127.32;;;5.91;70.67
50592;BME280;36548;50.506;30.834;2023-04-04T06:23:59;100119.86;;;5.99;70.93
50592;BME280;36548;50.506;30.834;2023-04-04T06:25:08;100123.07;;;5.87;70.74
50592;BME280;36548;50.506;30.834;2023-04-04T06:26:25;100112.92;;;5.95;69.62